Time;durP1;ratioP1;P1;durP2;ratioP2;P2;SDS_P1;SDS_P2;PMS_P1;PMS_P2;Temp;Humidity;BMP_temperature;BMP_pressure;BME280_temperature;BME280_humidity;BME280_pressure;Samples;Min_cycle;Max_cycle;Signal;HPM_P1;HPM_P2
2022/10/21 00:00:26;;;;;;;16.42;12.25;;;;;;;18.25;63.21;100708.38;5050701;28;20087;-69
2022/10/21 00:02:53;;;;;;;15.18;11.45;;;;;;;18.24;63.15;100701.25;5050382;28;20487;-69
2022/10/21 00:05:20;;;;;;;13.85;11.10;;;;;;;18.24;63.46;100701.25;5051316;28;20052;-69
2022/10/21 00:07:46;;;;;;;17.23;12.07;;;;;;;18.25;63.13;100693.94;5050715;28;20512;-69
2022/10/21 00:10:13;;;;;;;17.60;12.60;;;;;;;18.24;63.38;100701.25;5050679;28;20040;-70
2022/10/21 00:12:39;;;;;;;18.50;12.48;;;;;;;18.27;63.44;100691.91;5050695;28;20045;-70
2022/10/21 00:15:09;;;;;;;20.85;13.10;;;;;;;18.25;63.14;100696.66;5051036;28;20029;-69
2022/10/21 00:17:40;;;;;;;18.23;12.18;;;;;;;18.23;63.22;100695.97;5050065;28;20087;-69
2022/10/21 00:20:09;;;;;;;19.42;12.38;;;;;;;18.23;63.38;100694.09;5050656;28;20036;-69
2022/10/21 00:22:36;;;;;;;15.73;12.27;;;;;;;18.26;63.26;100693.78;5050348;28;20045;-69
2022/10/21 00:25:09;;;;;;;17.27;12.07;;;;;;;18.26;63.35;100692.94;5043014;28;20098;-69
2022/10/21 00:27:36;;;;;;;17.45;11.07;;;;;;;18.25;63.60;100693.94;5050834;28;20060;-70
2022/10/21 00:30:06;;;;;;;19.45;13.10;;;;;;;18.24;63.54;100694.97;5050457;28;20466;-69
2022/10/21 00:32:33;;;;;;;17.90;11.93;;;;;;;18.22;63.11;100696.97;5050500;28;20029;-70
2022/10/21 00:34:59;;;;;;;18.70;12.60;;;;;;;18.22;63.53;100696.97;5050532;28;20053;-69
2022/10/21 00:37:29;;;;;;;19.08;11.73;;;;;;;18.21;63.17;100695.28;5050575;28;20036;-70
2022/10/21 00:39:56;;;;;;;20.55;12.40;;;;;;;18.22;63.28;100686.13;5050509;28;20491;-69
2022/10/21 00:42:33;;;;;;;17.88;12.80;;;;;;;18.22;63.36;100686.13;5048936;28;20037;-69
2022/10/21 00:45:04;;;;;;;17.20;12.13;;;;;;;18.22;63.40;100694.25;5050746;28;20049;-69
2022/10/21 00:47:34;;;;;;;18.48;12.20;;;;;;;18.20;63.36;100691.72;5050894;28;20475;-69
2022/10/21 00:50:03;;;;;;;16.05;12.05;;;;;;;18.17;63.19;100697.47;5050671;28;20171;-70
2022/10/21 00:52:33;;;;;;;18.33;11.70;;;;;;;18.16;63.30;100693.03;5050042;28;20033;-69
2022/10/21 00:55:03;;;;;;;16.88;12.65;;;;;;;18.15;63.33;100691.34;5050461;28;20040;-70
2022/10/21 00:57:33;;;;;;;16.98;12.45;;;;;;;18.14;63.48;100692.34;5050305;28;20064;-70
2022/10/21 01:00:01;;;;;;;20.95;12.40;;;;;;;18.15;63.31;100691.34;5050462;28;20053;-70
2022/10/21 01:02:28;;;;;;;17.35;12.98;;;;;;;18.14;63.46;100681.47;5050053;28;20094;-70
2022/10/21 01:05:01;;;;;;;17.88;12.55;;;;;;;18.14;63.58;100677.91;5050208;28;20033;-69
2022/10/21 01:07:27;;;;;;;19.95;12.90;;;;;;;18.12;63.70;100677.22;5053121;28;20049;-70
2022/10/21 01:09:54;;;;;;;16.77;11.68;;;;;;;18.11;63.83;100681.81;5054221;28;20310;-70
2022/10/21 01:12:34;;;;;;;16.52;12.45;;;;;;;18.10;63.93;100677.38;5053781;28;20045;-69
2022/10/21 01:15:20;;;;;;;15.75;12.63;;;;;;;18.10;63.51;100675.53;5053825;28;20487;-69
2022/10/21 01:18:03;;;;;;;15.52;12.00;;;;;;;18.12;63.60;100675.34;5053620;28;20106;-69
2022/10/21 01:20:55;;;;;;;16.95;12.05;;;;;;;18.12;63.67;100661.78;5053474;28;20053;-69
2022/10/21 01:24:14;;;;;;;14.63;11.38;;;;;;;18.10;63.65;100661.94;5053715;28;20107;-69
2022/10/21 01:26:46;;;;;;;18.15;12.18;;;;;;;18.10;63.28;100661.06;5041042;28;20053;-69
2022/10/21 01:29:44;;;;;;;18.92;12.32;;;;;;;18.05;63.71;100658.84;5046517;28;20098;-69
2022/10/21 01:32:22;;;;;;;16.92;12.82;;;;;;;18.02;63.15;100653.75;5042472;28;20102;-69
2022/10/21 01:34:49;;;;;;;16.08;11.75;;;;;;;18.02;63.43;100647.44;5053794;28;20098;-69
2022/10/21 01:37:24;;;;;;;17.88;12.32;;;;;;;18.01;63.87;100643.03;5053405;28;20052;-68
2022/10/21 01:39:54;;;;;;;17.23;12.90;;;;;;;18.02;63.54;100632.00;5053512;28;20260;-69
2022/10/21 01:42:38;;;;;;;19.70;12.52;;;;;;;18.04;63.39;100634.56;5052801;28;20041;-68
2022/10/21 01:45:23;;;;;;;16.15;12.10;;;;;;;18.04;63.68;100624.53;5052985;28;20040;-68
2022/10/21 01:47:54;;;;;;;16.77;12.40;;;;;;;18.04;63.48;100629.13;5039793;28;20553;-68
2022/10/21 01:50:27;;;;;;;17.85;12.32;;;;;;;18.01;63.54;100624.00;5053327;28;20291;-69
2022/10/21 01:52:58;;;;;;;20.25;13.50;;;;;;;18.00;63.58;100625.03;5052809;28;20045;-68
2022/10/21 01:55:30;;;;;;;23.67;13.25;;;;;;;17.96;63.27;100621.78;5051741;28;20052;-69
2022/10/21 01:58:12;;;;;;;19.67;12.95;;;;;;;17.92;63.41;100603.25;5052977;28;20495;-69
2022/10/21 02:00:40;;;;;;;21.80;13.20;;;;;;;17.91;63.43;100599.69;5052840;28;20033;-69
2022/10/21 02:03:10;;;;;;;17.33;12.88;;;;;;;17.91;63.63;100596.97;5052751;28;20403;-69
2022/10/21 02:05:39;;;;;;;17.58;13.13;;;;;;;17.91;63.89;100593.41;5053111;28;20033;-69
2022/10/21 02:08:06;;;;;;;16.52;12.40;;;;;;;17.87;63.46;100590.16;5053007;28;20064;-69
2022/10/21 02:10:38;;;;;;;18.80;13.00;;;;;;;17.87;63.50;100592.88;5052958;28;20483;-69
2022/10/21 02:13:08;;;;;;;18.23;11.98;;;;;;;17.87;63.39;100586.59;5052644;28;20033;-69
2022/10/21 02:15:38;;;;;;;17.60;12.40;;;;;;;17.86;63.54;100584.88;5052672;28;20041;-68
2022/10/21 02:18:07;;;;;;;21.08;13.38;;;;;;;17.85;63.26;100584.03;5051796;28;20037;-68
2022/10/21 02:20:41;;;;;;;17.90;12.82;;;;;;;17.84;63.25;100586.91;5052559;28;20037;-69
2022/10/21 02:23:11;;;;;;;17.95;11.63;;;;;;;17.82;63.64;100586.19;5052419;28;20444;-69
2022/10/21 02:25:42;;;;;;;18.10;11.98;;;;;;;17.80;63.56;100586.34;5053168;28;20130;-69
2022/10/21 02:28:11;;;;;;;17.15;12.80;;;;;;;17.77;63.25;100584.81;5052583;28;20095;-69
2022/10/21 02:30:45;;;;;;;17.27;11.93;;;;;;;17.76;63.35;100572.25;5051784;28;20311;-69
2022/10/21 02:33:22;;;;;;;18.13;12.90;;;;;;;17.74;63.43;100573.41;5052118;28;20044;-69
2022/10/21 02:36:04;;;;;;;19.10;12.75;;;;;;;17.71;63.53;100569.16;5052479;28;20110;-69
2022/10/21 02:38:56;;;;;;;18.50;13.10;;;;;;;17.67;63.66;100565.06;5052541;28;20041;-69
2022/10/21 02:41:25;;;;;;;15.55;12.40;;;;;;;17.68;63.55;100571.34;5052041;28;20079;-69
2022/10/21 02:44:10;;;;;;;17.95;12.65;;;;;;;17.64;63.65;100569.94;5052205;28;20048;-69
2022/10/21 02:46:41;;;;;;;16.27;11.68;;;;;;;17.66;63.35;100582.38;5052211;28;20045;-69
2022/10/21 02:49:08;;;;;;;17.95;12.07;;;;;;;17.66;63.55;100576.94;5052293;28;20499;-69
2022/10/21 02:51:35;;;;;;;17.80;11.55;;;;;;;17.65;63.28;100574.34;5051601;28;20106;-69
2022/10/21 02:54:11;;;;;;;24.35;12.48;;;;;;;17.66;63.34;100578.78;5052203;28;20484;-70
2022/10/21 02:56:38;;;;;;;18.90;12.07;;;;;;;17.65;63.72;100579.78;5051863;28;20503;-68
2022/10/21 02:59:04;;;;;;;17.33;12.20;;;;;;;17.64;63.50;100580.78;5052023;28;20487;-68
2022/10/21 03:01:31;;;;;;;19.85;12.13;;;;;;;17.60;63.27;100580.25;5051588;28;20068;-69
2022/10/21 03:03:59;;;;;;;17.55;12.27;;;;;;;17.58;63.36;100574.16;5050614;28;20036;-69
2022/10/21 03:06:26;;;;;;;14.07;11.02;;;;;;;17.58;63.85;100574.16;5050475;28;20102;-69
2022/10/21 03:08:52;;;;;;;18.67;11.43;;;;;;;17.58;63.41;100573.28;5051879;28;20049;-69
2022/10/21 03:11:19;;;;;;;17.13;11.55;;;;;;;17.58;63.46;100566.00;5051697;28;20048;-69
2022/10/21 03:13:45;;;;;;;19.08;12.13;;;;;;;17.58;63.70;100563.28;5033023;28;20080;-69
2022/10/21 03:16:12;;;;;;;16.85;11.75;;;;;;;17.59;63.62;100570.41;5051794;28;20442;-69
2022/10/21 03:18:38;;;;;;;19.58;11.88;;;;;;;17.59;63.72;100556.00;5051503;28;20491;-69
2022/10/21 03:21:05;;;;;;;23.00;12.57;;;;;;;17.58;63.58;100562.44;5051158;28;20057;-70
2022/10/21 03:23:32;;;;;;;15.25;11.75;;;;;;;17.58;63.44;100562.44;5051309;28;20553;-69
2022/10/21 03:25:59;;;;;;;17.70;11.25;;;;;;;17.56;63.43;100565.31;5031731;28;20451;-69
2022/10/21 03:28:25;;;;;;;18.95;12.63;;;;;;;17.55;63.68;100571.75;5041858;28;20033;-69
2022/10/21 03:30:53;;;;;;;17.95;12.02;;;;;;;17.53;63.52;100568.34;5050873;28;20049;-69
2022/10/21 03:33:19;;;;;;;17.70;11.88;;;;;;;17.51;63.55;100567.66;5051225;28;20103;-68
2022/10/21 03:35:46;;;;;;;18.20;12.10;;;;;;;17.50;63.60;100568.66;5051196;28;20380;-69
2022/10/21 03:38:12;;;;;;;21.35;12.35;;;;;;;17.49;63.62;100561.53;5051346;28;20396;-69
2022/10/21 03:40:39;;;;;;;19.23;11.52;;;;;;;17.49;63.44;100564.25;5050817;28;20045;-69
2022/10/21 03:43:05;;;;;;;15.43;11.02;;;;;;;17.48;63.59;100565.25;5050882;28;20086;-69
2022/10/21 03:45:34;;;;;;;18.83;11.65;;;;;;;17.45;63.25;100568.28;5051312;28;20095;-68
2022/10/21 03:48:01;;;;;;;19.92;11.88;;;;;;;17.41;63.52;100572.34;5050754;28;20068;-70
2022/10/21 03:50:27;;;;;;;17.05;12.63;;;;;;;17.38;62.98;100564.50;5050916;28;20041;-68
2022/10/21 03:52:54;;;;;;;19.10;11.82;;;;;;;17.34;63.07;100571.28;5050498;28;20033;-69
2022/10/21 03:55:24;;;;;;;15.18;11.23;;;;;;;17.29;63.03;100566.31;5051093;28;20041;-68
2022/10/21 03:57:51;;;;;;;16.05;11.10;;;;;;;17.25;63.16;100561.38;5050883;28;20041;-69
2022/10/21 04:00:19;;;;;;;15.90;11.52;;;;;;;17.22;63.23;100562.53;5050832;28;20052;-69
2022/10/21 04:02:45;;;;;;;19.67;11.73;;;;;;;17.23;63.43;100558.81;5050744;28;20049;-69
2022/10/21 04:05:12;;;;;;;15.13;11.38;;;;;;;17.21;63.45;100558.13;5050972;28;20082;-69
2022/10/21 04:07:39;;;;;;;17.38;10.85;;;;;;;17.18;63.17;100552.16;5050633;28;20422;-69
2022/10/21 04:10:06;;;;;;;15.15;11.52;;;;;;;17.15;63.01;100553.34;5050696;28;20438;-69
2022/10/21 04:12:32;;;;;;;17.13;11.30;;;;;;;17.12;63.08;100548.22;5050641;28;20115;-69
2022/10/21 04:15:00;;;;;;;17.80;11.15;;;;;;;17.09;63.50;100554.81;5050908;28;20037;-69
2022/10/21 04:17:27;;;;;;;16.92;10.95;;;;;;;17.08;63.19;100557.66;5050573;28;20473;-69
2022/10/21 04:19:53;;;;;;;15.35;11.80;;;;;;;17.07;63.18;100554.09;5050844;28;20052;-70
2022/10/21 04:22:20;;;;;;;16.33;11.38;;;;;;;17.05;63.54;100547.97;5050439;28;20041;-69
2022/10/21 04:24:49;;;;;;;15.95;10.93;;;;;;;17.03;63.32;100552.72;5050985;28;20376;-69
2022/10/21 04:27:15;;;;;;;16.10;11.10;;;;;;;17.02;63.24;100555.56;5050792;28;20366;-70
2022/10/21 04:29:42;;;;;;;15.10;10.70;;;;;;;17.01;63.31;100565.56;5050493;28;20368;-69
2022/10/21 04:32:09;;;;;;;15.38;11.40;;;;;;;17.00;63.36;100547.59;5050466;28;20584;-69
2022/10/21 04:34:36;;;;;;;17.10;11.52;;;;;;;16.99;63.35;100554.03;5050978;28;20102;-70
2022/10/21 04:37:02;;;;;;;16.98;11.82;;;;;;;16.99;63.11;100550.47;5050504;28;20041;-69
2022/10/21 04:39:30;;;;;;;16.35;11.38;;;;;;;17.00;63.40;100561.16;5050593;28;20065;-70
2022/10/21 04:41:57;;;;;;;17.58;12.00;;;;;;;16.99;63.15;100553.19;5051903;28;20094;-69
2022/10/21 04:44:25;;;;;;;15.20;10.95;;;;;;;16.98;63.47;100556.91;5054288;28;20502;-69
2022/10/21 04:46:51;;;;;;;16.75;11.43;;;;;;;16.94;63.05;100559.06;5054144;28;20396;-69
2022/10/21 04:49:18;;;;;;;18.20;10.93;;;;;;;16.91;63.05;100553.97;5053182;28;20045;-69
2022/10/21 04:51:44;;;;;;;13.15;10.23;;;;;;;16.88;63.33;100557.00;5053731;28;20052;-69
2022/10/21 04:54:15;;;;;;;20.50;12.10;;;;;;;16.86;63.16;100552.72;5054667;28;20040;-69
2022/10/21 04:56:42;;;;;;;18.13;10.85;;;;;;;16.82;63.26;100552.19;5054034;28;20487;-69
2022/10/21 04:59:08;;;;;;;15.30;11.40;;;;;;;16.79;63.13;100558.78;5054068;28;20036;-68
2022/10/21 05:01:35;;;;;;;17.05;10.93;;;;;;;16.78;63.15;100564.38;5053789;28;20170;-70
2022/10/21 05:04:06;;;;;;;16.27;10.43;;;;;;;16.78;63.68;100556.22;5054515;28;20045;-69
2022/10/21 05:06:33;;;;;;;19.35;11.27;;;;;;;16.80;63.37;100557.78;5053880;28;20119;-69
2022/10/21 05:08:59;;;;;;;14.32;10.77;;;;;;;16.83;63.27;100557.47;5053827;28;20430;-69
2022/10/21 05:11:26;;;;;;;16.67;10.30;;;;;;;16.85;63.79;100554.59;5054144;28;20530;-69
2022/10/21 05:13:52;;;;;;;15.85;10.35;;;;;;;16.89;63.78;100555.97;5053536;28;20074;-68
2022/10/21 05:16:26;;;;;;;16.83;11.20;;;;;;;16.91;63.60;100555.81;5053778;28;20037;-69
2022/10/21 05:18:53;;;;;;;15.68;11.20;;;;;;;16.91;63.96;100547.69;5054127;28;20071;-68
2022/10/21 05:21:19;;;;;;;18.38;10.63;;;;;;;16.92;63.71;100543.97;5053893;28;20446;-69
2022/10/21 05:23:46;;;;;;;18.50;10.90;;;;;;;16.93;63.78;100542.97;5053470;28;20049;-69
2022/10/21 05:26:14;;;;;;;18.17;10.50;;;;;;;16.95;63.81;100541.78;5053543;28;20098;-70
2022/10/21 05:28:41;;;;;;;15.40;10.60;;;;;;;16.97;64.15;100534.34;5053785;28;20045;-69
2022/10/21 05:31:07;;;;;;;14.90;9.88;;;;;;;16.98;63.70;100535.19;5053335;28;20057;-69
2022/10/21 05:33:34;;;;;;;16.00;9.85;;;;;;;16.97;63.88;100531.63;5053591;28;20029;-69
2022/10/21 05:36:06;;;;;;;14.48;9.73;;;;;;;16.98;63.74;100524.34;5052944;28;20091;-69
2022/10/21 05:38:34;;;;;;;14.93;9.82;;;;;;;16.97;63.95;100519.94;5051772;28;20116;-69
2022/10/21 05:41:00;;;;;;;11.35;8.43;;;;;;;16.96;63.73;100519.09;5050503;28;20501;-69
2022/10/21 05:43:27;;;;;;;12.98;8.95;;;;;;;16.96;64.00;100520.94;5052999;28;20582;-69
2022/10/21 05:45:53;;;;;;;12.43;8.60;;;;;;;16.98;64.00;100527.06;5052500;28;20053;-69
2022/10/21 05:48:20;;;;;;;11.82;8.63;;;;;;;16.99;63.66;100524.19;5052966;28;20036;-69
2022/10/21 05:50:50;;;;;;;14.48;9.57;;;;;;;17.01;63.49;100524.88;5052886;28;20079;-69
2022/10/21 05:53:16;;;;;;;15.15;8.60;;;;;;;17.02;63.95;100526.59;5052211;28;20037;-70
2022/10/21 05:55:43;;;;;;;10.13;7.03;;;;;;;17.02;63.57;100532.00;5052297;28;20037;-70
2022/10/21 05:58:09;;;;;;;12.38;8.45;;;;;;;17.01;63.70;100522.16;5052670;28;20106;-68
2022/10/21 06:00:36;;;;;;;10.60;8.48;;;;;;;16.99;63.53;100518.75;5052497;28;20041;-69
2022/10/21 06:03:02;;;;;;;17.40;8.13;;;;;;;16.99;63.67;100516.06;5052496;28;20128;-69
2022/10/21 06:05:30;;;;;;;14.43;8.55;;;;;;;16.98;63.64;100500.78;5052521;28;20450;-70
2022/10/21 06:07:57;;;;;;;14.52;8.82;;;;;;;16.97;63.65;100512.66;5052155;28;20103;-69
2022/10/21 06:10:23;;;;;;;14.48;8.77;;;;;;;16.95;63.48;100516.53;5052298;28;20037;-69
2022/10/21 06:12:54;;;;;;;13.88;8.75;;;;;;;16.92;63.64;100512.28;5052195;28;20523;-69
2022/10/21 06:15:25;;;;;;;14.43;9.00;;;;;;;16.91;63.66;100521.41;5052449;28;20125;-69
2022/10/21 06:17:52;;;;;;;12.27;8.48;;;;;;;16.86;63.33;100514.75;5051424;28;20083;-70
2022/10/21 06:20:18;;;;;;;17.33;9.05;;;;;;;16.81;63.29;100513.38;5049669;28;20064;-69
2022/10/21 06:22:45;;;;;;;14.48;9.40;;;;;;;16.78;63.22;100502.84;5052076;28;20049;-69
2022/10/21 06:25:11;;;;;;;13.85;9.00;;;;;;;16.79;63.73;100517.25;5052253;28;20056;-70
2022/10/21 06:27:38;;;;;;;12.18;8.55;;;;;;;16.78;63.36;100512.84;5048195;28;20037;-68
2022/10/21 06:30:06;;;;;;;12.70;8.77;;;;;;;16.75;63.68;100519.44;5051209;28;20045;-68
2022/10/21 06:32:32;;;;;;;15.10;9.20;;;;;;;16.73;63.67;100518.72;5052565;28;20094;-69
2022/10/21 06:34:59;;;;;;;16.38;9.68;;;;;;;16.73;63.52;100518.72;5051303;28;20048;-68
2022/10/21 06:37:25;;;;;;;14.73;8.77;;;;;;;16.74;63.38;100519.59;5051898;28;20053;-69
2022/10/21 06:39:52;;;;;;;14.50;9.77;;;;;;;16.75;63.64;100522.13;5051843;28;20037;-68
2022/10/21 06:42:19;;;;;;;14.27;8.77;;;;;;;16.78;63.82;100523.69;5051530;28;20041;-69
2022/10/21 06:44:50;;;;;;;12.43;9.02;;;;;;;16.80;63.52;100535.22;5052072;28;20049;-69
2022/10/21 06:47:19;;;;;;;15.18;9.60;;;;;;;16.81;63.58;100539.63;5050835;28;20064;-69
2022/10/21 06:49:46;;;;;;;15.13;9.65;;;;;;;16.81;63.82;100536.94;5052126;28;20442;-68
2022/10/21 06:52:12;;;;;;;14.40;9.52;;;;;;;16.79;63.76;100537.09;5051861;28;20099;-68
2022/10/21 06:54:43;;;;;;;13.40;9.00;;;;;;;16.79;63.80;100544.38;5052095;28;20128;-68
2022/10/21 06:57:10;;;;;;;14.38;8.80;;;;;;;16.83;63.91;100540.34;5051682;28;20167;-68
2022/10/21 06:59:36;;;;;;;16.08;9.48;;;;;;;16.84;63.82;100547.47;5051783;28;20041;-68
2022/10/21 07:02:03;;;;;;;13.60;9.35;;;;;;;16.85;63.85;100554.59;5051666;28;20041;-68
2022/10/21 07:04:30;;;;;;;12.18;8.40;;;;;;;16.86;64.03;100561.72;5051253;28;20037;-69
2022/10/21 07:06:57;;;;;;;13.32;9.10;;;;;;;16.89;64.14;100566.84;5051160;28;20029;-69
2022/10/21 07:09:23;;;;;;;13.73;8.77;;;;;;;16.91;64.14;100569.38;5051761;28;20043;-68
2022/10/21 07:11:50;;;;;;;13.73;8.80;;;;;;;16.94;63.83;100572.63;5051576;28;20422;-68
2022/10/21 07:14:17;;;;;;;16.77;8.75;;;;;;;16.97;63.91;100566.91;5051696;28;20045;-68
2022/10/21 07:16:44;;;;;;;12.77;8.90;;;;;;;17.01;64.25;100578.28;5051044;28;20507;-69
2022/10/21 07:19:10;;;;;;;13.52;8.65;;;;;;;17.04;64.30;100586.97;5051416;28;20106;-69
2022/10/21 07:21:37;;;;;;;11.88;7.85;;;;;;;17.07;64.19;100592.06;5050836;28;20545;-69
2022/10/21 07:24:04;;;;;;;11.82;8.35;;;;;;;17.11;64.32;100592.66;5051807;28;20037;-69
2022/10/21 07:26:32;;;;;;;12.82;8.38;;;;;;;17.14;64.06;100600.47;5050717;28;20041;-69
2022/10/21 07:28:59;;;;;;;11.98;8.50;;;;;;;17.16;64.21;100601.16;5051334;28;20045;-68
2022/10/21 07:31:29;;;;;;;13.07;8.70;;;;;;;17.18;64.46;100610.00;5051134;28;20049;-68
2022/10/21 07:36:29;;;;;;;12.10;7.97;;;;;;;17.25;64.18;100613.78;5050729;28;20340;-68
2022/10/21 07:38:59;;;;;;;14.02;7.72;;;;;;;17.29;64.01;100596.19;5051233;28;20045;-68
2022/10/21 07:41:30;;;;;;;12.95;8.10;;;;;;;17.33;64.12;100596.72;5051089;28;20076;-68
2022/10/21 07:44:06;;;;;;;13.05;8.10;;;;;;;17.36;64.50;100599.13;5050024;28;20490;-68
2022/10/21 07:46:33;;;;;;;10.82;7.95;;;;;;;17.41;64.55;100596.78;5050756;28;20033;-68
2022/10/21 07:49:00;;;;;;;14.73;8.38;;;;;;;17.44;64.55;100591.03;5050040;28;20041;-67
2022/10/21 07:51:26;;;;;;;11.40;7.93;;;;;;;17.47;64.44;100599.69;5051261;28;20053;-68
2022/10/21 07:54:01;;;;;;;12.23;8.45;;;;;;;17.51;64.31;100586.66;5050977;28;20467;-68
2022/10/21 07:56:31;;;;;;;10.65;8.32;;;;;;;17.56;64.35;100581.59;5050550;28;20045;-68
2022/10/21 07:58:58;;;;;;;12.90;7.93;;;;;;;17.60;64.34;100582.97;5050845;28;20071;-68
2022/10/21 08:01:25;;;;;;;12.10;8.45;;;;;;;17.65;64.24;100582.50;5050854;28;20565;-68
2022/10/21 08:04:09;;;;;;;14.32;8.55;;;;;;;17.69;64.47;100592.06;5050774;28;20157;-68
2022/10/21 08:06:36;;;;;;;12.55;8.63;;;;;;;17.74;64.30;100587.00;5049788;28;20041;-69
2022/10/21 08:09:03;;;;;;;13.38;8.93;;;;;;;17.78;64.08;100593.81;5049460;28;20033;-69
2022/10/21 08:11:32;;;;;;;13.60;8.70;;;;;;;17.81;64.58;100588.03;5050709;28;20368;-69
2022/10/21 08:14:07;;;;;;;12.40;8.75;;;;;;;17.85;64.58;100596.75;5050607;28;20041;-68
2022/10/21 08:16:34;;;;;;;11.45;8.15;;;;;;;17.89;64.44;100587.28;5051835;28;20037;-68
2022/10/21 08:19:01;;;;;;;12.63;8.23;;;;;;;17.94;64.30;100587.63;5054769;28;20056;-69
2022/10/21 08:21:30;;;;;;;13.15;8.68;;;;;;;17.99;64.50;100596.16;5054869;28;20102;-69
2022/10/21 08:24:05;;;;;;;15.43;8.75;;;;;;;18.03;64.49;100592.94;5054752;28;20037;-69
2022/10/21 08:26:32;;;;;;;12.35;8.15;;;;;;;18.09;64.23;100588.72;5043218;28;20037;-68
2022/10/21 08:29:00;;;;;;;19.10;9.05;;;;;;;18.13;64.28;100590.09;5054527;28;20041;-69
2022/10/21 08:31:27;;;;;;;15.73;8.50;;;;;;;18.16;64.62;100589.75;5054248;28;20045;-68
2022/10/21 08:33:59;;;;;;;11.57;7.72;;;;;;;18.20;64.69;100590.28;5054659;28;20060;-69
2022/10/21 08:36:26;;;;;;;14.05;8.77;;;;;;;18.24;64.54;100602.53;5052949;28;20075;-69
2022/10/21 08:38:53;;;;;;;10.25;7.85;;;;;;;18.27;64.59;100592.19;5054228;28;20541;-68
2022/10/21 08:41:42;;;;;;;13.43;8.48;;;;;;;18.33;64.69;100596.09;5054318;28;20037;-68
2022/10/21 08:44:25;;;;;;;17.52;8.20;;;;;;;18.38;64.37;100597.31;5054628;28;20041;-70
2022/10/21 08:47:19;;;;;;;13.77;8.80;;;;;;;18.41;64.57;100599.69;5053901;28;20082;-69
2022/10/21 08:49:52;;;;;;;13.82;8.95;;;;;;;18.46;64.25;100598.34;5054341;28;20076;-67
2022/10/21 08:52:22;;;;;;;14.13;9.13;;;;;;;18.46;64.29;100599.19;5053841;28;20499;-69
2022/10/21 08:54:56;;;;;;;14.45;8.75;;;;;;;18.50;64.49;100614.16;5054912;28;20041;-69
2022/10/21 08:57:23;;;;;;;17.75;9.50;;;;;;;18.56;64.38;100612.66;5053545;28;20053;-70
2022/10/21 08:59:50;;;;;;;16.80;10.00;;;;;;;18.57;64.24;100609.75;5054083;28;20091;-70
2022/10/21 09:02:31;;;;;;;16.55;9.93;;;;;;;18.59;64.66;100605.03;5036070;28;20403;-69
2022/10/21 09:05:26;;;;;;;13.35;9.93;;;;;;;18.59;64.16;100607.75;5054544;28;20123;-70
2022/10/21 09:08:07;;;;;;;13.45;8.90;;;;;;;18.61;64.49;100607.59;5052173;28;20041;-70
2022/10/21 09:11:00;;;;;;;13.55;8.80;;;;;;;18.61;64.80;100613.91;5054006;28;20037;-69
2022/10/21 09:14:00;;;;;;;13.13;8.45;;;;;;;18.63;64.43;100609.16;5053831;28;20094;-70
2022/10/21 09:16:49;;;;;;;11.48;8.48;;;;;;;18.66;64.35;100608.84;5033527;28;20050;-70
2022/10/21 09:19:31;;;;;;;14.13;9.23;;;;;;;18.68;64.35;100605.94;5032052;28;20046;-71
2022/10/21 09:22:19;;;;;;;12.15;9.07;;;;;;;18.69;64.71;100618.53;5033442;28;20405;-70
2022/10/21 09:25:33;;;;;;;13.27;8.65;;;;;;;18.72;64.45;100629.94;5043484;28;20037;-71
2022/10/21 09:28:10;;;;;;;14.07;9.18;;;;;;;18.77;64.69;100626.69;5052101;28;20037;-66
2022/10/21 09:30:39;;;;;;;16.55;9.75;;;;;;;18.79;64.27;100619.22;5053615;28;20040;-67
2022/10/21 09:33:34;;;;;;;16.67;9.85;;;;;;;18.79;64.31;100619.22;5053552;28;20506;-67
2022/10/21 09:36:28;;;;;;;19.45;10.88;;;;;;;18.83;64.37;100620.59;5052571;28;20107;-68
2022/10/21 09:39:11;;;;;;;14.55;9.85;;;;;;;18.88;64.33;100622.81;5053295;28;20041;-67
2022/10/21 09:41:43;;;;;;;13.23;10.07;;;;;;;18.92;64.53;100635.06;5053168;28;20044;-68
2022/10/21 09:44:15;;;;;;;12.20;9.40;;;;;;;18.96;64.67;100623.66;5052813;28;20040;-68
2022/10/21 09:46:46;;;;;;;14.98;10.05;;;;;;;19.00;64.65;100622.31;5052694;28;20049;-68
2022/10/21 09:49:30;;;;;;;16.17;10.40;;;;;;;19.04;64.84;100620.94;5049505;28;20111;-68
2022/10/21 09:52:19;;;;;;;16.73;9.73;;;;;;;19.13;64.65;100623.69;5033470;28;20056;-67
2022/10/21 09:54:47;;;;;;;14.57;9.73;;;;;;;19.17;64.71;100617.72;5033100;28;20037;-68
2022/10/21 09:57:25;;;;;;;14.98;9.27;;;;;;;19.24;65.01;100623.34;5033611;28;20045;-68
2022/10/21 09:59:59;;;;;;;12.68;8.35;;;;;;;19.30;65.13;100625.38;5045199;28;20083;-68
2022/10/21 10:02:37;;;;;;;10.02;7.72;;;;;;;19.37;65.19;100610.09;5052970;28;20507;-68
2022/10/21 10:05:32;;;;;;;11.30;8.00;;;;;;;19.46;64.82;100627.25;5053152;28;20128;-68
2022/10/21 10:07:58;;;;;;;11.93;7.88;;;;;;;19.52;64.86;100623.84;5052749;28;20041;-68
2022/10/21 10:10:31;;;;;;;10.07;7.32;;;;;;;19.58;65.22;100621.31;5052256;28;20064;-67
2022/10/21 10:13:02;;;;;;;17.08;7.55;;;;;;;19.64;64.97;100633.41;5052682;28;20056;-69
2022/10/21 10:15:35;;;;;;;14.45;7.32;;;;;;;19.70;64.84;100629.13;5051778;28;20132;-67
2022/10/21 10:18:03;;;;;;;11.35;7.35;;;;;;;19.76;64.96;100636.63;5052149;28;20063;-66
2022/10/21 10:20:29;;;;;;;9.70;6.53;;;;;;;19.80;64.80;100638.81;5052569;28;20106;-67
2022/10/21 10:22:57;;;;;;;10.02;5.90;;;;;;;19.83;64.74;100643.06;5051979;28;20045;-67
2022/10/21 10:25:48;;;;;;;11.48;6.20;;;;;;;19.85;64.57;100636.41;5052853;28;20045;-67
2022/10/21 10:28:22;;;;;;;12.35;5.78;;;;;;;19.91;64.65;100637.59;5052149;28;20095;-68
2022/10/21 10:30:53;;;;;;;11.02;6.07;;;;;;;19.94;64.49;100639.97;5052574;28;20128;-67
2022/10/21 10:33:20;;;;;;;11.57;5.95;;;;;;;19.97;64.49;100643.19;5052905;28;20052;-68
2022/10/21 10:35:53;;;;;;;9.73;6.43;;;;;;;20.03;64.68;100649.81;5034860;28;20060;-67
2022/10/21 10:38:32;;;;;;;9.88;6.80;;;;;;;20.07;64.55;100653.94;5051837;28;20045;-67
2022/10/21 10:41:17;;;;;;;14.25;6.50;;;;;;;20.11;64.81;100652.56;5051573;28;20040;-68
2022/10/21 10:43:53;;;;;;;12.07;6.95;;;;;;;20.19;64.50;100649.81;5052072;28;20045;-68
2022/10/21 10:46:36;;;;;;;10.82;6.55;;;;;;;20.25;64.49;100650.97;5040215;28;20132;-68
2022/10/21 10:49:20;;;;;;;17.23;7.78;;;;;;;20.31;64.53;100661.19;5050770;28;20474;-68
2022/10/21 10:52:07;;;;;;;10.57;6.50;;;;;;;20.38;64.41;100650.41;5051530;28;20037;-68
2022/10/21 10:54:37;;;;;;;10.15;7.63;;;;;;;20.43;64.71;100653.50;5048330;28;20491;-67
2022/10/21 10:57:25;;;;;;;12.45;7.55;;;;;;;20.49;64.63;100647.31;5051790;28;20091;-67
2022/10/21 11:00:21;;;;;;;10.70;7.05;;;;;;;20.57;64.71;100645.41;5050417;28;20052;-68
2022/10/21 11:02:56;;;;;;;11.80;7.47;;;;;;;20.65;64.46;100649.97;5031892;28;20033;-67
2022/10/21 11:05:50;;;;;;;11.73;6.20;;;;;;;20.73;64.64;100647.19;5032113;28;20099;-67
2022/10/21 11:08:29;;;;;;;9.60;6.05;;;;;;;20.83;64.20;100645.09;5029995;28;20054;-67
2022/10/21 11:11:03;;;;;;;12.93;6.95;;;;;;;20.91;64.34;100636.88;5039411;28;20086;-67
2022/10/21 11:13:33;;;;;;;9.40;6.07;;;;;;;20.98;64.11;100639.72;5051615;28;20037;-67
2022/10/21 11:16:25;;;;;;;8.05;5.97;;;;;;;21.04;63.89;100643.59;5051369;28;20065;-67
2022/10/21 11:19:19;;;;;;;9.82;5.90;;;;;;;21.11;63.87;100630.91;5051549;28;20106;-67
2022/10/21 11:21:54;;;;;;;8.27;5.22;;;;;;;21.16;63.71;100633.94;5050729;28;20333;-67
2022/10/21 11:24:27;;;;;;;7.07;4.70;;;;;;;21.22;63.75;100628.63;5051374;28;20044;-67
2022/10/21 11:27:45;;;;;;;5.07;3.67;;;;;;;21.31;63.33;100623.94;5050828;28;20064;-67
2022/10/21 11:30:18;;;;;;;7.68;4.43;;;;;;;21.45;63.55;100617.69;5011806;28;20041;-67
2022/10/21 11:32:50;;;;;;;8.15;3.58;;;;;;;21.58;63.28;100617.06;5049783;28;20033;-67
2022/10/21 11:35:32;;;;;;;5.22;3.80;;;;;;;21.74;63.37;100616.06;5051312;28;20399;-67
2022/10/21 11:38:13;;;;;;;10.02;3.38;;;;;;;21.92;62.95;100612.94;5050926;28;20435;-67